createdAt,value
2018-09-15T00:00:45.117Z,12.27
2018-09-15T00:03:13.424Z,11.40
2018-09-15T00:05:41.694Z,11.13
2018-09-15T00:08:09.933Z,10.50
2018-09-15T00:10:38.432Z,11.53
2018-09-15T00:13:06.704Z,10.77
2018-09-15T00:15:34.912Z,10.60
2018-09-15T00:18:05.552Z,10.83
2018-09-15T00:20:33.857Z,12.93
2018-09-15T00:23:02.102Z,12.43
2018-09-15T00:25:30.343Z,11.87
2018-09-15T00:27:58.800Z,12.47
2018-09-15T00:30:26.994Z,12.90
2018-09-15T00:32:55.150Z,13.10
2018-09-15T00:35:23.330Z,12.37
2018-09-15T00:37:51.717Z,12.57
2018-09-15T00:40:19.953Z,12.37
2018-09-15T00:42:48.170Z,12.87
2018-09-15T00:45:16.406Z,12.73
2018-09-15T00:47:44.775Z,12.90
2018-09-15T00:50:12.993Z,12.80
2018-09-15T00:52:41.320Z,11.97
2018-09-15T00:55:09.505Z,11.53
2018-09-15T00:57:37.667Z,10.33
2018-09-15T01:00:06.434Z,11.00
2018-09-15T01:02:34.659Z,11.13
2018-09-15T01:05:02.813Z,11.40
2018-09-15T01:07:30.940Z,10.77
2018-09-15T01:09:59.122Z,11.23
2018-09-15T01:12:27.337Z,13.27
2018-09-15T01:14:55.531Z,12.63
2018-09-15T01:17:23.734Z,13.03
2018-09-15T01:19:51.952Z,12.40
2018-09-15T01:22:20.150Z,13.57
2018-09-15T01:24:48.264Z,13.37
2018-09-15T01:27:16.416Z,13.83
2018-09-15T01:29:44.677Z,13.67
2018-09-15T01:32:12.884Z,13.20
2018-09-15T01:34:41.025Z,13.17
2018-09-15T01:37:09.283Z,11.70
2018-09-15T01:39:37.480Z,11.73
2018-09-15T01:42:05.702Z,12.67
2018-09-15T01:44:33.835Z,11.30
2018-09-15T01:47:01.994Z,12.47
2018-09-15T01:49:30.137Z,12.00
2018-09-15T01:51:58.334Z,11.37
2018-09-15T01:54:26.418Z,11.73
2018-09-15T01:56:54.544Z,12.13
2018-09-15T01:59:22.729Z,12.13
2018-09-15T02:01:50.843Z,10.90
2018-09-15T02:04:18.980Z,11.90
2018-09-15T02:06:47.173Z,12.77
2018-09-15T02:09:15.504Z,11.77
2018-09-15T02:11:44.376Z,11.13
2018-09-15T02:14:12.589Z,12.93
2018-09-15T02:16:40.804Z,13.33
2018-09-15T02:19:08.932Z,14.10
2018-09-15T02:21:37.085Z,13.30
2018-09-15T02:24:05.276Z,13.40
2018-09-15T02:26:33.480Z,14.43
2018-09-15T02:29:08.209Z,11.97
2018-09-15T02:31:36.383Z,13.53
2018-09-15T02:34:04.511Z,12.60
2018-09-15T02:36:32.792Z,14.60
2018-09-15T02:39:00.978Z,14.10
2018-09-15T02:41:29.256Z,14.17
2018-09-15T02:43:57.435Z,14.93
2018-09-15T02:46:25.608Z,14.67
2018-09-15T02:48:53.767Z,14.27
2018-09-15T02:51:22.019Z,15.00
2018-09-15T02:53:50.199Z,13.27
2018-09-15T02:56:18.476Z,13.17
2018-09-15T02:58:47.119Z,13.83
2018-09-15T03:01:15.293Z,13.23
2018-09-15T03:03:43.563Z,14.43
2018-09-15T03:06:11.786Z,14.27
2018-09-15T03:08:39.997Z,13.67
2018-09-15T03:11:08.193Z,13.27
2018-09-15T03:13:36.364Z,14.07
2018-09-15T03:16:04.703Z,14.90
2018-09-15T03:18:32.933Z,14.63
2018-09-15T03:21:01.221Z,15.33
2018-09-15T03:23:29.547Z,16.73
2018-09-15T03:25:57.828Z,16.10
2018-09-15T03:28:26.038Z,16.90
2018-09-15T03:30:54.299Z,17.07
2018-09-15T03:33:22.555Z,16.97
2018-09-15T03:35:50.753Z,16.30
2018-09-15T03:38:18.990Z,16.73
2018-09-15T03:40:47.196Z,17.03
2018-09-15T03:43:15.531Z,16.60
2018-09-15T03:45:43.799Z,16.30
2018-09-15T03:48:12.069Z,15.47
2018-09-15T03:50:40.252Z,15.13
2018-09-15T03:53:08.444Z,15.63
2018-09-15T03:55:36.690Z,15.87
2018-09-15T03:58:04.932Z,15.07
2018-09-15T04:00:33.213Z,14.87
2018-09-15T04:03:01.459Z,17.13
2018-09-15T04:05:29.661Z,15.93
2018-09-15T04:07:58.037Z,15.77
2018-09-15T04:10:26.236Z,13.70
2018-09-15T04:12:54.515Z,13.83
2018-09-15T04:15:22.730Z,13.93
2018-09-15T04:17:50.961Z,13.70
2018-09-15T04:20:19.151Z,17.90
2018-09-15T04:22:47.384Z,16.50
2018-09-15T04:25:15.598Z,15.83
2018-09-15T04:27:43.829Z,16.40
2018-09-15T04:30:12.033Z,15.23
2018-09-15T04:32:40.249Z,14.83
2018-09-15T04:35:08.593Z,15.37
2018-09-15T04:37:36.822Z,14.60
2018-09-15T04:40:05.055Z,14.33
2018-09-15T04:42:33.269Z,14.77
2018-09-15T04:45:01.452Z,14.97
2018-09-15T04:47:29.677Z,15.63
2018-09-15T04:49:57.898Z,17.13
2018-09-15T04:52:26.140Z,21.17
2018-09-15T04:54:54.723Z,19.87
2018-09-15T04:57:22.929Z,20.27
2018-09-15T04:59:51.109Z,20.53
2018-09-15T05:02:19.428Z,19.53
2018-09-15T05:04:47.635Z,21.73
2018-09-15T05:07:15.852Z,20.50
2018-09-15T05:09:44.039Z,22.83
2018-09-15T05:12:12.196Z,22.43
2018-09-15T05:14:40.307Z,22.10
2018-09-15T05:17:08.541Z,22.13
2018-09-15T05:19:36.757Z,22.13
2018-09-15T05:22:05.135Z,21.50
2018-09-15T05:24:33.292Z,20.70
2018-09-15T05:27:01.494Z,19.00
2018-09-15T05:29:29.713Z,18.90
2018-09-15T05:31:57.940Z,18.77
2018-09-15T05:34:26.175Z,18.17
2018-09-15T05:36:54.455Z,18.67
2018-09-15T05:39:22.725Z,18.50
2018-09-15T05:41:50.908Z,18.23
2018-09-15T05:44:19.131Z,17.83
2018-09-15T05:46:47.322Z,18.07
2018-09-15T05:49:16.029Z,16.10
2018-09-15T05:51:44.280Z,16.63
2018-09-15T05:54:12.504Z,17.73
2018-09-15T05:56:40.678Z,18.73
2018-09-15T05:59:08.805Z,18.17
2018-09-15T06:01:37.089Z,18.90
2018-09-15T06:04:05.218Z,18.40
2018-09-15T06:06:33.370Z,18.83
2018-09-15T06:09:07.313Z,17.47
2018-09-15T06:11:35.482Z,18.87
2018-09-15T06:14:13.447Z,18.47
2018-09-15T06:16:41.597Z,17.57
2018-09-15T06:19:09.840Z,15.83
2018-09-15T06:21:38.084Z,15.53
2018-09-15T06:24:06.241Z,16.87
2018-09-15T06:26:34.705Z,15.90
2018-09-15T06:29:03.199Z,15.73
2018-09-15T06:31:31.413Z,16.27
2018-09-15T06:33:59.572Z,14.57
2018-09-15T06:36:27.717Z,15.93
2018-09-15T06:38:55.953Z,16.67
2018-09-15T06:41:24.135Z,17.07
2018-09-15T06:43:52.275Z,17.53
2018-09-15T06:46:20.536Z,16.70
2018-09-15T06:48:48.676Z,19.40
2018-09-15T06:51:16.845Z,17.90
2018-09-15T06:53:45.107Z,17.93
2018-09-15T06:56:13.255Z,17.73
2018-09-15T06:58:41.524Z,16.80
2018-09-15T07:01:09.739Z,15.97
2018-09-15T07:03:38.004Z,16.97
2018-09-15T07:06:06.166Z,15.93
2018-09-15T07:08:34.502Z,16.63
2018-09-15T07:11:02.857Z,16.17
2018-09-15T07:13:31.092Z,17.10
2018-09-15T07:15:59.278Z,16.80
2018-09-15T07:18:27.503Z,17.03
2018-09-15T07:20:55.812Z,17.27
2018-09-15T07:23:24.035Z,16.80
2018-09-15T07:25:52.258Z,17.73
2018-09-15T07:28:20.506Z,18.30
2018-09-15T07:30:48.737Z,16.63
2018-09-15T07:33:16.972Z,16.47
2018-09-15T07:35:45.929Z,17.53
2018-09-15T07:38:14.122Z,16.47
2018-09-15T07:40:42.390Z,16.10
2018-09-15T07:43:10.563Z,16.30
2018-09-15T07:45:38.790Z,16.67
2018-09-15T07:48:07.212Z,16.50
2018-09-15T07:50:35.411Z,16.30
2018-09-15T07:53:03.796Z,16.07
2018-09-15T07:55:32.005Z,16.60
2018-09-15T07:58:00.462Z,14.73
2018-09-15T08:00:28.454Z,14.33
2018-09-15T08:02:56.652Z,14.27
2018-09-15T08:05:24.865Z,14.53
2018-09-15T08:07:53.134Z,15.37
2018-09-15T08:10:21.404Z,14.70
2018-09-15T08:12:49.663Z,13.40
2018-09-15T08:15:17.961Z,13.20
2018-09-15T08:17:46.115Z,14.33
2018-09-15T08:20:14.309Z,12.83
2018-09-15T08:22:42.603Z,12.20
2018-09-15T08:25:10.755Z,12.20
2018-09-15T08:27:38.971Z,11.80
2018-09-15T08:30:07.160Z,11.27
2018-09-15T08:32:35.480Z,10.03
2018-09-15T08:35:03.766Z,10.77
2018-09-15T08:37:32.031Z,8.87
2018-09-15T08:40:00.168Z,8.10
2018-09-15T08:42:28.399Z,7.20
2018-09-15T08:44:56.539Z,7.07
2018-09-15T08:47:24.807Z,8.20
2018-09-15T08:49:52.905Z,7.67
2018-09-15T08:52:21.110Z,8.53
2018-09-15T08:54:49.469Z,8.77
2018-09-15T08:57:17.653Z,8.90
2018-09-15T08:59:45.833Z,9.87
2018-09-15T09:02:14.913Z,10.10
2018-09-15T09:04:44.315Z,10.60
2018-09-15T09:07:12.553Z,10.87
2018-09-15T09:09:40.835Z,10.23
2018-09-15T09:12:09.098Z,10.00
2018-09-15T09:14:37.442Z,9.07
2018-09-15T09:17:05.700Z,8.80
2018-09-15T09:19:33.933Z,9.07
2018-09-15T09:22:02.087Z,8.87
2018-09-15T09:24:37.719Z,7.80
2018-09-15T09:27:12.418Z,8.20
2018-09-15T09:29:40.943Z,8.40
2018-09-15T09:32:09.166Z,7.70
2018-09-15T09:34:37.730Z,8.37
2018-09-15T09:37:06.019Z,8.03
2018-09-15T09:39:34.289Z,7.03
2018-09-15T09:42:02.865Z,7.80
2018-09-15T09:44:31.009Z,7.20
2018-09-15T09:46:59.202Z,6.37
2018-09-15T09:49:27.408Z,6.17
2018-09-15T09:51:55.602Z,5.77
2018-09-15T09:54:23.779Z,6.97
2018-09-15T09:56:51.988Z,6.30
2018-09-15T09:59:20.208Z,6.13
2018-09-15T10:01:53.791Z,6.10
2018-09-15T10:04:21.965Z,6.90
2018-09-15T10:06:50.067Z,6.57
2018-09-15T10:09:18.477Z,6.70
2018-09-15T10:11:46.787Z,6.73
2018-09-15T10:14:14.980Z,6.10
2018-09-15T10:16:43.146Z,6.10
2018-09-15T10:19:11.318Z,6.00
2018-09-15T10:21:39.559Z,5.60
2018-09-15T10:24:07.749Z,5.67
2018-09-15T10:26:35.919Z,6.40
2018-09-15T10:29:04.146Z,6.60
2018-09-15T10:31:32.361Z,6.70
2018-09-15T10:34:00.481Z,6.40
2018-09-15T10:36:28.684Z,6.00
2018-09-15T10:38:56.855Z,5.90
2018-09-15T10:41:25.008Z,5.53
2018-09-15T10:43:53.208Z,5.83
2018-09-15T10:46:21.735Z,6.13
2018-09-15T10:48:50.023Z,5.80
2018-09-15T10:51:18.200Z,5.80
2018-09-15T10:53:46.348Z,4.67
2018-09-15T10:56:14.579Z,5.60
2018-09-15T10:58:42.815Z,5.20
2018-09-15T11:01:10.980Z,5.30
2018-09-15T11:03:39.171Z,5.53
2018-09-15T11:06:07.312Z,5.90
2018-09-15T11:08:35.536Z,5.43
2018-09-15T11:11:03.762Z,4.53
2018-09-15T11:13:31.951Z,4.80
2018-09-15T11:16:00.104Z,3.93
2018-09-15T11:18:28.203Z,4.47
2018-09-15T11:20:56.792Z,4.20
2018-09-15T11:23:24.969Z,5.20
2018-09-15T11:25:53.192Z,3.97
2018-09-15T11:28:21.305Z,3.83
2018-09-15T11:30:49.562Z,3.43
2018-09-15T11:33:17.880Z,4.30
2018-09-15T11:35:46.247Z,4.40
2018-09-15T11:38:14.417Z,4.27
2018-09-15T11:40:42.972Z,4.33
2018-09-15T11:43:12.041Z,4.50
2018-09-15T11:45:40.560Z,4.30
2018-09-15T11:48:09.134Z,4.13
2018-09-15T11:50:37.522Z,4.00
2018-09-15T11:53:06.268Z,4.30
2018-09-15T11:55:35.159Z,3.77
2018-09-15T11:58:03.844Z,3.87
2018-09-15T12:00:35.654Z,3.80
2018-09-15T12:03:04.162Z,3.77
2018-09-15T12:05:32.792Z,3.30
2018-09-15T12:08:01.383Z,3.80
2018-09-15T12:10:30.281Z,3.93
2018-09-15T12:12:58.998Z,4.00
2018-09-15T12:15:27.716Z,3.47
2018-09-15T12:17:56.365Z,3.90
2018-09-15T12:20:25.106Z,4.10
2018-09-15T12:22:53.421Z,4.20
2018-09-15T12:25:22.115Z,3.43
2018-09-15T12:27:50.889Z,4.10
2018-09-15T12:30:19.226Z,4.00
2018-09-15T12:32:47.398Z,4.43
2018-09-15T12:35:15.738Z,3.53
2018-09-15T12:37:43.928Z,3.33
2018-09-15T12:40:12.213Z,3.90
2018-09-15T12:42:40.590Z,4.47
2018-09-15T12:45:08.940Z,4.17
2018-09-15T12:47:37.339Z,3.67
2018-09-15T12:50:05.547Z,3.43
2018-09-15T12:52:33.726Z,3.70
2018-09-15T12:55:01.982Z,4.50
2018-09-15T12:57:30.112Z,4.23
2018-09-15T12:59:58.695Z,4.90
2018-09-15T13:02:26.917Z,4.37
2018-09-15T13:04:55.197Z,4.00
2018-09-15T13:07:23.310Z,4.10
2018-09-15T13:09:51.486Z,4.70
2018-09-15T13:12:19.658Z,3.90
2018-09-15T13:14:47.788Z,3.97
2018-09-15T13:17:15.976Z,4.50
2018-09-15T13:19:44.153Z,4.00
2018-09-15T13:22:12.348Z,4.13
2018-09-15T13:24:40.541Z,3.90
2018-09-15T13:27:09.372Z,4.10
2018-09-15T13:29:37.877Z,4.63
2018-09-15T13:32:06.221Z,3.53
2018-09-15T13:34:34.474Z,3.90
2018-09-15T13:37:02.721Z,4.13
2018-09-15T13:39:30.979Z,3.87
2018-09-15T13:41:59.202Z,3.70
2018-09-15T13:44:27.964Z,3.43
2018-09-15T13:46:56.232Z,3.57
2018-09-15T13:49:24.509Z,4.03
2018-09-15T13:51:52.720Z,4.30
2018-09-15T13:54:20.922Z,3.30
2018-09-15T13:56:49.130Z,4.03
2018-09-15T13:59:17.561Z,3.53
2018-09-15T14:01:46.089Z,3.60
2018-09-15T14:04:14.400Z,3.40
2018-09-15T14:06:42.877Z,3.47
2018-09-15T14:09:11.950Z,3.50
2018-09-15T14:11:40.562Z,3.27
2018-09-15T14:14:09.327Z,3.03
2018-09-15T14:16:38.139Z,3.80
2018-09-15T14:19:07.196Z,3.43
2018-09-15T14:21:35.825Z,3.20
2018-09-15T14:24:04.385Z,3.33
2018-09-15T14:26:32.625Z,3.50
2018-09-15T14:29:00.841Z,3.30
2018-09-15T14:31:28.997Z,2.97
2018-09-15T14:33:57.119Z,3.27
2018-09-15T14:36:25.246Z,3.57
2018-09-15T14:38:53.382Z,3.40
2018-09-15T14:41:21.621Z,3.83
2018-09-15T14:43:49.753Z,3.70
2018-09-15T14:46:17.970Z,3.50
2018-09-15T14:48:46.116Z,3.30
2018-09-15T14:51:14.281Z,3.70
2018-09-15T14:53:42.457Z,2.93
2018-09-15T14:56:10.640Z,3.10
2018-09-15T14:58:38.762Z,3.07
2018-09-15T15:01:06.902Z,3.10
2018-09-15T15:03:35.038Z,3.23
2018-09-15T15:06:03.229Z,3.10
2018-09-15T15:08:31.374Z,3.00
2018-09-15T15:10:59.498Z,3.40
2018-09-15T15:13:27.667Z,2.90
2018-09-15T15:15:56.145Z,2.80
2018-09-15T15:18:24.353Z,3.20
2018-09-15T15:20:52.685Z,2.97
2018-09-15T15:23:20.948Z,3.10
2018-09-15T15:25:50.080Z,3.10
2018-09-15T15:28:18.160Z,3.10
2018-09-15T15:30:46.322Z,3.10
2018-09-15T15:33:14.484Z,3.20
2018-09-15T15:35:43.427Z,3.13
2018-09-15T15:38:11.612Z,2.83
2018-09-15T15:40:39.741Z,3.10
2018-09-15T15:43:07.882Z,3.30
2018-09-15T15:45:36.043Z,2.83
2018-09-15T15:48:04.218Z,3.50
2018-09-15T15:50:32.401Z,3.30
2018-09-15T15:53:00.569Z,3.30
2018-09-15T15:55:35.022Z,2.93
2018-09-15T15:58:03.098Z,2.57
2018-09-15T16:00:31.222Z,2.63
2018-09-15T16:02:59.371Z,2.60
2018-09-15T16:05:27.469Z,3.17
2018-09-15T16:07:55.662Z,2.90
2018-09-15T16:10:23.757Z,2.60
2018-09-15T16:12:51.941Z,3.30
2018-09-15T16:15:20.078Z,2.53
2018-09-15T16:17:48.249Z,2.90
2018-09-15T16:20:16.435Z,2.80
2018-09-15T16:22:44.643Z,3.00
2018-09-15T16:25:12.803Z,3.03
2018-09-15T16:27:41.035Z,3.00
2018-09-15T16:30:09.947Z,2.90
2018-09-15T16:32:38.075Z,2.60
2018-09-15T16:35:06.233Z,2.73
2018-09-15T16:37:34.395Z,3.17
2018-09-15T16:40:02.591Z,2.70
2018-09-15T16:42:30.713Z,2.47
2018-09-15T16:44:58.910Z,2.70
2018-09-15T16:47:27.097Z,2.73
2018-09-15T16:49:55.201Z,2.80
2018-09-15T16:52:23.387Z,2.60
2018-09-15T16:54:51.536Z,2.80
2018-09-15T16:57:19.950Z,3.13
2018-09-15T16:59:48.407Z,2.80
2018-09-15T17:02:16.533Z,3.00
2018-09-15T17:04:44.711Z,3.10
2018-09-15T17:07:12.860Z,2.83
2018-09-15T17:09:41.185Z,3.13
2018-09-15T17:12:09.479Z,2.83
2018-09-15T17:14:37.684Z,3.00
2018-09-15T17:17:05.835Z,3.03
2018-09-15T17:19:34.899Z,3.00
2018-09-15T17:22:03.045Z,2.90
2018-09-15T17:24:31.301Z,3.50
2018-09-15T17:26:59.828Z,2.73
2018-09-15T17:29:28.226Z,3.10
2018-09-15T17:31:56.780Z,2.83
2018-09-15T17:34:25.210Z,2.90
2018-09-15T17:36:53.707Z,3.20
2018-09-15T17:39:22.848Z,3.10
2018-09-15T17:41:50.986Z,2.93
2018-09-15T17:44:19.125Z,2.70
2018-09-15T17:46:47.308Z,2.47
2018-09-15T17:49:15.940Z,2.50
2018-09-15T17:51:44.725Z,2.50
2018-09-15T17:54:12.903Z,2.30
2018-09-15T17:56:41.063Z,2.33
2018-09-15T17:59:09.224Z,2.07
2018-09-15T18:01:37.317Z,2.67
2018-09-15T18:04:05.485Z,2.63
2018-09-15T18:06:33.644Z,2.70
2018-09-15T18:09:01.814Z,2.60
2018-09-15T18:11:30.028Z,2.80
2018-09-15T18:13:58.193Z,2.43
2018-09-15T18:16:26.288Z,2.60
2018-09-15T18:18:54.430Z,2.87
2018-09-15T18:21:22.669Z,3.00
2018-09-15T18:23:50.769Z,2.90
2018-09-15T18:26:19.482Z,3.33
2018-09-15T18:28:48.034Z,2.43
2018-09-15T18:31:16.192Z,2.80
2018-09-15T18:33:44.388Z,2.50
2018-09-15T18:36:12.705Z,2.87
2018-09-15T18:38:40.763Z,2.90
2018-09-15T18:41:08.867Z,3.50
2018-09-15T18:43:36.989Z,3.50
2018-09-15T18:46:06.006Z,3.53
2018-09-15T18:48:34.161Z,3.83
2018-09-15T18:51:02.306Z,3.30
2018-09-15T18:53:30.450Z,3.70
2018-09-15T18:55:59.389Z,3.47
2018-09-15T18:58:28.482Z,3.80
2018-09-15T19:00:57.265Z,3.90
2018-09-15T19:03:25.399Z,3.40
2018-09-15T19:05:53.599Z,3.50
2018-09-15T19:08:21.692Z,3.50
2018-09-15T19:10:49.795Z,3.10
2018-09-15T19:13:18.268Z,2.90
2018-09-15T19:15:46.401Z,3.13
2018-09-15T19:18:14.623Z,3.20
2018-09-15T19:20:42.829Z,3.17
2018-09-15T19:23:11.010Z,2.87
2018-09-15T19:25:39.924Z,2.90
2018-09-15T19:28:08.134Z,3.27
2018-09-15T19:30:36.354Z,3.13
2018-09-15T19:33:04.488Z,2.70
2018-09-15T19:35:32.613Z,2.83
2018-09-15T19:38:01.709Z,2.80
2018-09-15T19:40:29.893Z,2.60
2018-09-15T19:42:58.063Z,2.63
2018-09-15T19:45:27.534Z,2.30
2018-09-15T19:47:55.718Z,2.73
2018-09-15T19:50:24.217Z,2.57
2018-09-15T19:52:52.995Z,2.43
2018-09-15T19:55:21.138Z,3.00
2018-09-15T19:57:49.341Z,2.43
2018-09-15T20:00:17.547Z,3.00
2018-09-15T20:02:45.757Z,3.10
2018-09-15T20:05:14.328Z,3.50
2018-09-15T20:07:42.473Z,2.77
2018-09-15T20:10:10.616Z,2.70
2018-09-15T20:12:38.838Z,2.80
2018-09-15T20:15:11.490Z,2.70
2018-09-15T20:17:39.070Z,2.67
2018-09-15T20:20:06.669Z,3.03
2018-09-15T20:22:34.856Z,3.27
2018-09-15T20:25:03.582Z,3.47
2018-09-15T20:27:31.738Z,3.40
2018-09-15T20:29:59.851Z,3.03
2018-09-15T20:32:28.613Z,3.00
2018-09-15T20:34:56.728Z,3.73
2018-09-15T20:37:24.911Z,3.13
2018-09-15T20:39:54.009Z,3.07
2018-09-15T20:42:22.227Z,3.17
2018-09-15T20:44:50.797Z,3.77
2018-09-15T20:47:19.019Z,3.60
2018-09-15T20:49:47.227Z,3.40
2018-09-15T20:52:15.390Z,3.20
2018-09-15T20:54:43.679Z,3.33
2018-09-15T20:57:11.814Z,3.40
2018-09-15T20:59:39.936Z,3.80
2018-09-15T21:02:10.067Z,3.47
2018-09-15T21:04:38.523Z,3.63
2018-09-15T21:07:06.789Z,3.37
2018-09-15T21:09:35.124Z,3.83
2018-09-15T21:12:03.475Z,3.53
2018-09-15T21:14:32.163Z,3.77
2018-09-15T21:17:00.401Z,3.40
2018-09-15T21:19:28.551Z,3.30
2018-09-15T21:21:58.499Z,3.40
2018-09-15T21:24:26.757Z,3.40
2018-09-15T21:26:54.925Z,3.60
2018-09-15T21:29:23.107Z,3.50
2018-09-15T21:31:51.281Z,3.60
2018-09-15T21:34:19.741Z,3.33
2018-09-15T21:36:47.825Z,3.33
2018-09-15T21:39:15.963Z,3.77
2018-09-15T21:41:44.136Z,3.77
2018-09-15T21:44:12.291Z,3.30
2018-09-15T21:46:40.514Z,3.67
2018-09-15T21:49:08.691Z,3.50
2018-09-15T21:51:37.460Z,3.57
2018-09-15T21:54:05.930Z,3.63
2018-09-15T21:56:34.217Z,3.90
2018-09-15T21:59:02.370Z,3.70
2018-09-15T22:01:30.599Z,3.40
2018-09-15T22:04:04.163Z,4.13
2018-09-15T22:06:32.289Z,3.60
2018-09-15T22:09:03.071Z,3.93
2018-09-15T22:11:31.259Z,4.20
2018-09-15T22:14:00.737Z,4.43
2018-09-15T22:16:29.015Z,4.20
2018-09-15T22:18:57.147Z,3.90
2018-09-15T22:21:25.317Z,4.43
2018-09-15T22:23:53.495Z,4.67
2018-09-15T22:26:21.722Z,5.00
2018-09-15T22:28:49.902Z,5.10
2018-09-15T22:31:18.047Z,5.40
2018-09-15T22:33:46.178Z,5.37
2018-09-15T22:36:14.342Z,4.73
2018-09-15T22:38:42.537Z,5.20
2018-09-15T22:41:10.741Z,5.07
2018-09-15T22:43:38.862Z,4.90
2018-09-15T22:46:07.290Z,5.10
2018-09-15T22:48:35.512Z,5.20
2018-09-15T22:51:03.679Z,5.80
2018-09-15T22:53:31.795Z,5.70
2018-09-15T22:55:59.945Z,5.80
2018-09-15T22:58:28.053Z,5.50
2018-09-15T23:00:56.191Z,5.50
2018-09-15T23:03:24.860Z,5.70
2018-09-15T23:05:53.026Z,5.10
2018-09-15T23:08:21.141Z,5.27
2018-09-15T23:10:49.284Z,4.80
2018-09-15T23:13:17.469Z,5.37
2018-09-15T23:15:45.665Z,5.30
2018-09-15T23:18:13.750Z,5.43
2018-09-15T23:20:42.455Z,5.13
2018-09-15T23:23:10.601Z,4.87
2018-09-15T23:25:38.719Z,5.27
2018-09-15T23:28:06.870Z,5.43
2018-09-15T23:30:34.991Z,5.13
2018-09-15T23:33:03.281Z,5.50
2018-09-15T23:35:31.391Z,5.47
2018-09-15T23:37:59.530Z,5.27
2018-09-15T23:40:27.694Z,5.20
2018-09-15T23:42:55.877Z,4.90
2018-09-15T23:45:24.050Z,5.53
2018-09-15T23:47:52.183Z,5.10
2018-09-15T23:50:20.355Z,5.57
2018-09-15T23:52:48.995Z,5.60
2018-09-15T23:55:17.967Z,5.60
2018-09-15T23:57:46.213Z,5.27
